createdAt,value
2022-08-10T00:02:16.772Z,0.70
2022-08-10T00:04:45.140Z,0.70
2022-08-10T00:07:13.261Z,0.75
2022-08-10T00:09:50.672Z,0.98
2022-08-10T00:12:20.446Z,0.55
2022-08-10T00:14:48.518Z,0.60
2022-08-10T00:17:17.939Z,0.60
2022-08-10T00:20:02.495Z,0.60
2022-08-10T00:22:32.838Z,0.68
2022-08-10T00:25:01.114Z,0.80
2022-08-10T00:27:50.119Z,0.60
2022-08-10T00:30:18.926Z,0.60
2022-08-10T00:32:48.385Z,0.68
2022-08-10T00:35:16.389Z,0.70
2022-08-10T00:37:44.401Z,0.63
2022-08-10T00:40:37.189Z,0.80
2022-08-10T00:43:07.319Z,0.70
2022-08-10T00:45:35.697Z,0.52
2022-08-10T00:48:25.702Z,0.63
2022-08-10T00:50:57.022Z,0.70
2022-08-10T00:53:26.236Z,0.60
2022-08-10T00:57:16.970Z,1.40
2022-08-10T00:58:43.254Z,1.67
2022-08-10T01:02:10.044Z,0.50
2022-08-10T01:04:39.931Z,0.88
2022-08-10T01:06:59.274Z,0.60
2022-08-10T01:09:34.021Z,0.73
2022-08-10T01:12:41.010Z,0.77
2022-08-10T01:15:06.618Z,0.80
2022-08-10T01:17:50.749Z,0.80
2022-08-10T01:20:31.357Z,0.80
2022-08-10T01:23:31.745Z,0.80
2022-08-10T01:26:30.470Z,0.80
2022-08-10T01:29:17.899Z,0.70
2022-08-10T01:31:53.745Z,0.60
2022-08-10T01:34:25.238Z,0.60
2022-08-10T01:36:55.444Z,0.77
2022-08-10T01:39:27.157Z,0.85
2022-08-10T01:41:58.313Z,0.90
2022-08-10T01:44:31.527Z,0.93
2022-08-10T01:47:22.052Z,0.80
2022-08-10T01:50:00.869Z,0.88
2022-08-10T01:52:31.319Z,0.63
2022-08-10T01:54:59.961Z,0.80
2022-08-10T01:57:32.460Z,0.80
2022-08-10T02:00:03.472Z,1.00
2022-08-10T02:02:37.313Z,0.90
2022-08-10T02:05:07.347Z,0.60
2022-08-10T02:07:38.887Z,0.90
2022-08-10T02:10:11.777Z,0.82
2022-08-10T02:12:42.037Z,0.80
2022-08-10T02:15:15.971Z,0.85
2022-08-10T02:17:59.093Z,0.90
2022-08-10T02:20:34.457Z,0.90
2022-08-10T02:23:08.562Z,0.90
2022-08-10T02:25:41.505Z,1.08
2022-08-10T02:28:27.344Z,0.90
2022-08-10T02:31:01.601Z,1.00
2022-08-10T02:33:32.064Z,1.10
2022-08-10T02:36:07.381Z,1.00
2022-08-10T02:38:58.793Z,0.90
2022-08-10T02:45:02.552Z,0.95
2022-08-10T02:45:24.430Z,1.00
2022-08-10T02:47:51.072Z,1.00
2022-08-10T02:50:27.501Z,1.10
2022-08-10T02:53:01.133Z,1.10
2022-08-10T02:55:34.562Z,1.10
2022-08-10T02:58:12.521Z,1.08
2022-08-10T03:00:49.435Z,0.90
2022-08-10T03:03:22.268Z,1.00
2022-08-10T03:05:56.356Z,1.30
2022-08-10T03:08:28.339Z,0.98
2022-08-10T03:10:58.217Z,1.10
2022-08-10T03:13:27.519Z,1.23
2022-08-10T03:15:57.275Z,0.98
2022-08-10T03:18:26.040Z,1.52
2022-08-10T03:20:56.707Z,1.23
2022-08-10T03:23:26.392Z,1.27
2022-08-10T03:25:58.009Z,1.45
2022-08-10T03:28:33.255Z,1.40
2022-08-10T03:31:02.692Z,1.30
2022-08-10T03:33:34.082Z,1.30
2022-08-10T03:36:43.416Z,1.30
2022-08-10T03:38:52.493Z,1.30
2022-08-10T03:41:26.417Z,1.17
2022-08-10T03:43:59.489Z,1.38
2022-08-10T03:46:29.172Z,1.15
2022-08-10T03:49:01.295Z,1.50
2022-08-10T03:51:31.912Z,1.40
2022-08-10T03:54:05.459Z,1.52
2022-08-10T03:56:36.982Z,1.50
2022-08-10T03:59:06.214Z,1.45
2022-08-10T04:02:45.592Z,1.60
2022-08-10T04:04:25.065Z,1.60
2022-08-10T04:06:56.972Z,1.27
2022-08-10T04:09:43.061Z,1.73
2022-08-10T04:12:15.363Z,1.42
2022-08-10T04:14:51.407Z,1.67
2022-08-10T04:18:02.763Z,1.85
2022-08-10T04:20:14.709Z,1.58
2022-08-10T04:22:46.427Z,1.75
2022-08-10T04:25:16.399Z,1.70
2022-08-10T04:27:44.892Z,1.83
2022-08-10T04:30:13.121Z,1.85
2022-08-10T04:32:43.627Z,1.95
2022-08-10T04:35:12.154Z,1.65
2022-08-10T04:37:46.858Z,1.80
2022-08-10T04:40:29.370Z,2.30
2022-08-10T04:43:03.314Z,2.05
2022-08-10T04:45:47.555Z,2.13
2022-08-10T04:48:42.365Z,2.15
2022-08-10T04:51:11.028Z,2.03
2022-08-10T04:54:04.597Z,2.30
2022-08-10T04:56:33.105Z,2.25
2022-08-10T04:59:01.117Z,2.30
2022-08-10T05:02:09.943Z,2.40
2022-08-10T05:04:36.417Z,2.40
2022-08-10T05:07:05.996Z,2.30
2022-08-10T05:09:34.073Z,2.40
2022-08-10T05:12:23.911Z,3.00
2022-08-10T05:14:52.227Z,2.33
2022-08-10T05:17:21.957Z,2.60
2022-08-10T05:20:04.725Z,2.83
2022-08-10T05:22:37.971Z,2.85
2022-08-10T05:25:08.361Z,2.78
2022-08-10T05:27:37.813Z,2.72
2022-08-10T05:30:07.750Z,2.60
2022-08-10T05:32:58.634Z,3.10
2022-08-10T05:35:24.792Z,3.28
2022-08-10T05:38:10.908Z,3.08
2022-08-10T05:40:46.990Z,3.00
2022-08-10T05:43:19.107Z,3.40
2022-08-10T05:46:19.850Z,3.20
2022-08-10T05:48:42.020Z,3.40
2022-08-10T05:51:25.583Z,3.10
2022-08-10T05:54:03.162Z,3.20
2022-08-10T05:56:56.527Z,3.38
2022-08-10T06:00:30.732Z,3.35
2022-08-10T06:02:30.898Z,3.50
2022-08-10T06:05:07.773Z,3.35
2022-08-10T06:07:39.996Z,3.72
2022-08-10T06:10:10.654Z,3.10
2022-08-10T06:12:55.753Z,3.45
2022-08-10T06:15:50.666Z,3.67
2022-08-10T06:18:15.344Z,3.47
2022-08-10T06:20:43.830Z,3.50
2022-08-10T06:23:13.664Z,3.60
2022-08-10T06:26:10.720Z,3.28
2022-08-10T06:28:34.602Z,3.83
2022-08-10T06:31:06.966Z,3.95
2022-08-10T06:33:36.999Z,3.40
2022-08-10T06:36:07.099Z,3.83
2022-08-10T06:38:37.009Z,4.55
2022-08-10T06:41:16.831Z,3.35
2022-08-10T06:43:55.699Z,3.83
2022-08-10T06:46:27.660Z,3.33
2022-08-10T06:48:58.767Z,3.42
2022-08-10T06:51:31.361Z,3.72
2022-08-10T06:54:03.902Z,3.47
2022-08-10T06:56:43.756Z,3.50
2022-08-10T06:59:22.906Z,3.20
2022-08-10T07:01:58.912Z,3.67
2022-08-10T07:04:32.713Z,3.22
2022-08-10T07:07:05.251Z,3.50
2022-08-10T07:09:36.101Z,3.08
2022-08-10T07:12:07.564Z,3.45
2022-08-10T07:14:39.821Z,3.25
2022-08-10T07:17:15.132Z,3.20
2022-08-10T07:19:49.489Z,3.70
2022-08-10T07:23:22.774Z,3.22
2022-08-10T07:25:12.101Z,2.90
2022-08-10T07:28:00.459Z,2.80
2022-08-10T07:30:31.456Z,3.03
2022-08-10T07:33:03.121Z,2.95
2022-08-10T07:35:41.541Z,2.63
2022-08-10T07:38:14.939Z,2.90
2022-08-10T07:40:44.956Z,2.75
2022-08-10T07:43:14.630Z,2.40
2022-08-10T07:45:42.679Z,2.47
2022-08-10T07:48:16.863Z,2.97
2022-08-10T07:50:46.254Z,2.75
2022-08-10T07:53:19.846Z,2.90
2022-08-10T07:56:08.158Z,2.78
2022-08-10T07:58:40.335Z,2.65
2022-08-10T08:01:18.970Z,2.33
2022-08-10T08:04:05.460Z,2.00
2022-08-10T08:06:38.294Z,2.45
2022-08-10T08:09:07.064Z,2.70
2022-08-10T08:11:37.101Z,3.38
2022-08-10T08:14:07.034Z,2.55
2022-08-10T08:16:36.471Z,2.75
2022-08-10T08:24:08.088Z,2.55
2022-08-10T08:24:45.278Z,3.28
2022-08-10T08:27:16.930Z,2.83
2022-08-10T08:29:47.865Z,2.80
2022-08-10T08:32:19.230Z,2.97
2022-08-10T08:34:50.350Z,2.92
2022-08-10T08:38:31.569Z,2.25
2022-08-10T08:40:12.896Z,2.92
2022-08-10T08:43:09.945Z,3.13
2022-08-10T08:45:54.080Z,3.13
2022-08-10T08:48:57.854Z,2.35
2022-08-10T08:52:07.390Z,3.03
2022-08-10T08:54:49.528Z,3.00
2022-08-10T08:57:50.632Z,2.85
2022-08-10T09:00:20.349Z,2.58
2022-08-10T09:03:08.366Z,3.05
2022-08-10T09:06:00.200Z,2.55
2022-08-10T09:08:57.680Z,2.53
2022-08-10T09:11:39.523Z,2.83
2022-08-10T09:14:19.429Z,2.60
2022-08-10T09:16:58.799Z,2.45
2022-08-10T09:19:36.478Z,2.03
2022-08-10T09:22:17.946Z,2.30
2022-08-10T09:24:55.125Z,2.17
2022-08-10T09:27:27.682Z,2.70
2022-08-10T09:29:57.503Z,2.05
2022-08-10T09:35:39.203Z,2.00
2022-08-10T09:36:24.241Z,1.90
2022-08-10T09:38:29.980Z,1.45
2022-08-10T09:41:13.591Z,1.63
2022-08-10T09:43:51.799Z,1.70
2022-08-10T09:46:38.414Z,1.40
2022-08-10T09:49:17.341Z,1.48
2022-08-10T09:51:59.234Z,1.33
2022-08-10T09:54:40.482Z,1.80
2022-08-10T09:57:44.596Z,1.42
2022-08-10T10:00:11.421Z,1.95
2022-08-10T10:03:02.486Z,1.70
2022-08-10T10:05:40.097Z,1.67
2022-08-10T10:08:30.971Z,1.40
2022-08-10T10:11:08.640Z,1.30
2022-08-10T10:14:03.466Z,1.10
2022-08-10T10:16:50.915Z,1.30
2022-08-10T10:19:40.345Z,1.50
2022-08-10T10:22:26.154Z,1.20
2022-08-10T10:25:00.648Z,1.33
2022-08-10T10:27:40.203Z,1.40
2022-08-10T10:30:12.583Z,1.30
2022-08-10T10:32:57.680Z,1.20
2022-08-10T10:35:33.808Z,1.30
2022-08-10T10:38:04.262Z,1.25
2022-08-10T10:40:43.200Z,0.90
2022-08-10T10:43:26.692Z,1.10
2022-08-10T10:46:05.516Z,1.10
2022-08-10T10:48:42.150Z,1.38
2022-08-10T10:51:16.847Z,1.02
2022-08-10T10:53:50.721Z,1.00
2022-08-10T10:56:27.589Z,0.93
2022-08-10T10:59:54.176Z,1.00
2022-08-10T11:02:01.977Z,1.00
2022-08-10T11:04:41.463Z,1.05
2022-08-10T11:07:21.810Z,1.10
2022-08-10T11:10:05.188Z,1.20
2022-08-10T11:12:51.035Z,1.05
2022-08-10T11:15:27.109Z,1.13
2022-08-10T11:18:02.410Z,0.90
2022-08-10T11:20:41.992Z,0.88
2022-08-10T11:23:21.385Z,1.13
2022-08-10T11:25:59.695Z,1.00
2022-08-10T11:28:36.949Z,1.00
2022-08-10T11:31:22.709Z,1.00
2022-08-10T11:34:48.626Z,1.10
2022-08-10T11:36:58.958Z,0.95
2022-08-10T11:39:48.422Z,1.13
2022-08-10T11:42:35.894Z,1.20
2022-08-10T11:45:10.138Z,1.30
2022-08-10T11:47:46.004Z,1.33
2022-08-10T11:50:22.792Z,1.30
2022-08-10T11:53:05.288Z,1.05
2022-08-10T11:55:35.295Z,1.10
2022-08-10T11:58:26.311Z,1.30
2022-08-10T12:00:56.846Z,1.00
2022-08-10T12:03:31.355Z,1.17
2022-08-10T12:06:08.478Z,1.23
2022-08-10T12:10:05.837Z,1.05
2022-08-10T12:11:27.765Z,1.20
2022-08-10T12:14:21.978Z,1.17
2022-08-10T12:16:52.643Z,1.20
2022-08-10T12:19:28.598Z,1.20
2022-08-10T12:22:06.062Z,1.20
2022-08-10T12:24:39.219Z,1.58
2022-08-10T12:27:13.142Z,1.10
2022-08-10T12:29:47.226Z,1.17
2022-08-10T12:32:25.398Z,1.48
2022-08-10T12:35:04.322Z,1.33
2022-08-10T12:37:50.846Z,1.10
2022-08-10T12:40:38.533Z,1.08
2022-08-10T12:44:04.493Z,1.05
2022-08-10T12:46:07.566Z,1.20
2022-08-10T12:48:40.477Z,1.25
2022-08-10T12:51:15.833Z,1.40
2022-08-10T12:53:52.674Z,1.05
2022-08-10T12:56:24.200Z,1.20
2022-08-10T12:58:57.453Z,1.23
2022-08-10T13:02:09.856Z,1.33
2022-08-10T13:04:29.149Z,1.50
2022-08-10T13:07:00.065Z,1.30
2022-08-10T13:09:29.947Z,1.50
2022-08-10T13:12:38.120Z,1.30
2022-08-10T13:14:55.257Z,1.30
2022-08-10T13:17:38.721Z,1.50
2022-08-10T13:20:16.078Z,1.33
2022-08-10T13:22:46.403Z,1.27
2022-08-10T13:25:21.179Z,1.20
2022-08-10T13:28:03.227Z,1.25
2022-08-10T13:30:41.233Z,1.80
2022-08-10T13:33:11.911Z,1.70
2022-08-10T13:35:41.007Z,1.92
2022-08-10T13:38:11.316Z,1.40
2022-08-10T13:40:41.351Z,1.25
2022-08-10T13:43:11.360Z,1.33
2022-08-10T13:45:47.875Z,1.60
2022-08-10T13:48:20.733Z,1.55
2022-08-10T13:50:51.526Z,1.35
2022-08-10T13:53:20.561Z,1.92
2022-08-10T13:55:53.752Z,1.70
2022-08-10T13:58:25.976Z,1.50
2022-08-10T14:00:56.658Z,1.30
2022-08-10T14:03:26.888Z,1.40
2022-08-10T14:05:58.545Z,1.20
2022-08-10T14:08:30.317Z,1.33
2022-08-10T14:11:10.435Z,1.40
2022-08-10T14:13:44.191Z,1.30
2022-08-10T14:16:13.674Z,1.20
2022-08-10T14:18:44.888Z,1.15
2022-08-10T14:21:13.706Z,1.50
2022-08-10T14:23:42.374Z,1.10
2022-08-10T14:26:26.271Z,0.95
2022-08-10T14:28:58.375Z,1.10
2022-08-10T14:31:33.658Z,1.20
2022-08-10T14:34:04.528Z,1.40
2022-08-10T14:36:40.761Z,1.20
2022-08-10T14:39:12.987Z,1.10
2022-08-10T14:42:01.450Z,1.30
2022-08-10T14:44:34.693Z,1.23
2022-08-10T14:47:51.578Z,1.90
2022-08-10T14:49:59.483Z,1.10
2022-08-10T14:52:29.123Z,1.17
2022-08-10T14:55:22.898Z,1.20
2022-08-10T14:58:18.922Z,1.25
2022-08-10T15:00:43.715Z,1.42
2022-08-10T15:03:58.944Z,1.33
2022-08-10T15:06:18.348Z,1.20
2022-08-10T15:08:47.853Z,1.30
2022-08-10T15:12:12.307Z,1.23
2022-08-10T15:14:25.896Z,1.42
2022-08-10T15:16:58.538Z,1.08
2022-08-10T15:20:00.791Z,1.10
2022-08-10T15:22:36.416Z,1.25
2022-08-10T15:25:18.701Z,1.10
2022-08-10T15:27:57.971Z,1.30
2022-08-10T15:30:40.728Z,1.30
2022-08-10T15:33:59.479Z,1.20
2022-08-10T15:37:02.142Z,1.08
2022-08-10T15:40:22.508Z,1.10
2022-08-10T15:42:34.944Z,1.33
2022-08-10T15:45:03.646Z,1.15
2022-08-10T15:47:46.023Z,1.30
2022-08-10T15:50:20.632Z,1.17
2022-08-10T15:53:01.854Z,1.00
2022-08-10T15:55:41.187Z,1.05
2022-08-10T15:58:18.457Z,1.00
2022-08-10T16:00:51.639Z,0.98
2022-08-10T16:03:30.943Z,1.13
2022-08-10T16:06:03.460Z,1.20
2022-08-10T16:08:55.801Z,1.20
2022-08-10T16:11:37.374Z,1.25
2022-08-10T16:14:14.269Z,1.52
2022-08-10T16:16:45.054Z,1.17
2022-08-10T16:19:25.069Z,1.02
2022-08-10T16:21:59.358Z,1.10
2022-08-10T16:24:33.513Z,0.90
2022-08-10T16:27:06.493Z,1.10
2022-08-10T16:29:56.482Z,1.10
2022-08-10T16:32:27.372Z,1.17
2022-08-10T16:34:59.901Z,1.13
2022-08-10T16:37:57.908Z,0.93
2022-08-10T16:40:25.508Z,1.20
2022-08-10T16:42:55.150Z,1.20
2022-08-10T16:45:31.107Z,1.00
2022-08-10T16:48:02.861Z,1.00
2022-08-10T16:50:38.682Z,1.00
2022-08-10T16:53:11.860Z,1.10
2022-08-10T16:55:48.039Z,1.00
2022-08-10T16:58:22.031Z,1.30
2022-08-10T17:00:52.074Z,1.10
2022-08-10T17:04:06.327Z,1.23
2022-08-10T17:06:24.905Z,1.27
2022-08-10T17:08:56.997Z,0.90
2022-08-10T17:11:30.829Z,1.10
2022-08-10T17:14:01.911Z,0.90
2022-08-10T17:16:35.990Z,1.10
2022-08-10T17:19:08.048Z,1.00
2022-08-10T17:21:51.038Z,1.10
2022-08-10T17:24:25.107Z,1.10
2022-08-10T17:26:53.444Z,1.20
2022-08-10T17:29:59.159Z,1.30
2022-08-10T17:32:21.657Z,1.30
2022-08-10T17:34:53.943Z,1.08
2022-08-10T17:37:27.541Z,1.20
2022-08-10T17:40:00.736Z,1.10
2022-08-10T17:42:55.535Z,1.20
2022-08-10T17:45:47.816Z,1.10
2022-08-10T17:48:18.371Z,1.08
2022-08-10T17:50:50.788Z,1.15
2022-08-10T17:53:27.447Z,0.90
2022-08-10T17:55:58.171Z,1.05
2022-08-10T17:58:27.807Z,1.23
2022-08-10T18:01:41.775Z,1.17
2022-08-10T18:03:51.894Z,1.10
2022-08-10T18:06:21.884Z,1.27
2022-08-10T18:08:56.693Z,1.30
2022-08-10T18:11:29.930Z,1.65
2022-08-10T18:14:04.168Z,1.40
2022-08-10T18:16:56.673Z,0.90
2022-08-10T18:19:30.794Z,1.40
2022-08-10T18:22:02.830Z,1.40
2022-08-10T18:24:33.751Z,1.33
2022-08-10T18:27:05.164Z,1.20
2022-08-10T18:29:36.364Z,1.40
2022-08-10T18:32:06.077Z,1.20
2022-08-10T18:34:37.365Z,1.40
2022-08-10T18:37:10.319Z,1.30
2022-08-10T18:39:44.922Z,1.30
2022-08-10T18:42:17.147Z,1.17
2022-08-10T18:44:51.233Z,1.48
2022-08-10T18:47:27.682Z,1.27
2022-08-10T18:50:02.310Z,1.30
2022-08-10T18:52:36.283Z,1.40
2022-08-10T18:55:14.474Z,1.65
2022-08-10T18:58:11.760Z,1.65
2022-08-10T19:00:57.449Z,1.35
2022-08-10T19:03:56.886Z,1.38
2022-08-10T19:06:59.274Z,1.38
2022-08-10T19:09:48.276Z,1.20
2022-08-10T19:12:34.202Z,1.30
2022-08-10T19:15:15.289Z,1.30
2022-08-10T19:18:03.755Z,1.40
2022-08-10T19:20:54.984Z,1.20
2022-08-10T19:23:43.235Z,1.50
2022-08-10T19:26:42.454Z,1.33
2022-08-10T19:30:09.097Z,1.70
2022-08-10T19:32:48.805Z,1.25
2022-08-10T19:35:26.535Z,1.42
2022-08-10T19:38:06.985Z,1.50
2022-08-10T19:41:09.829Z,1.33
2022-08-10T19:44:00.386Z,1.60
2022-08-10T19:46:45.281Z,1.52
2022-08-10T19:49:45.529Z,1.30
2022-08-10T19:52:23.589Z,1.48
2022-08-10T19:55:02.518Z,1.60
2022-08-10T19:57:56.973Z,1.50
2022-08-10T20:00:31.618Z,1.75
2022-08-10T20:03:12.057Z,1.65
2022-08-10T20:06:18.149Z,1.48
2022-08-10T20:08:58.328Z,1.45
2022-08-10T20:11:45.268Z,1.40
2022-08-10T20:14:22.132Z,1.65
2022-08-10T20:16:55.976Z,1.45
2022-08-10T20:19:53.482Z,1.67
2022-08-10T20:22:30.385Z,1.55
2022-08-10T20:25:22.066Z,1.73
2022-08-10T20:27:59.760Z,1.50
2022-08-10T20:30:36.190Z,1.80
2022-08-10T20:33:13.451Z,1.77
2022-08-10T20:35:50.427Z,1.52
2022-08-10T20:38:27.208Z,1.73
2022-08-10T20:41:09.591Z,1.58
2022-08-10T20:44:07.131Z,1.48
2022-08-10T20:46:41.493Z,1.55
2022-08-10T20:49:23.541Z,1.60
2022-08-10T20:52:00.600Z,1.75
2022-08-10T20:54:36.319Z,1.80
2022-08-10T20:57:55.648Z,1.55
2022-08-10T21:00:26.804Z,1.67
2022-08-10T21:03:24.936Z,1.80
2022-08-10T21:06:41.099Z,1.77
2022-08-10T21:09:28.967Z,2.03
2022-08-10T21:12:29.996Z,2.10
2022-08-10T21:15:15.445Z,1.98
2022-08-10T21:17:54.011Z,2.03
2022-08-10T21:20:47.428Z,2.00
2022-08-10T21:23:33.705Z,2.10
2022-08-10T21:26:11.315Z,2.30
2022-08-10T21:29:10.537Z,1.90
2022-08-10T21:31:53.290Z,2.65
2022-08-10T21:34:54.331Z,2.00
2022-08-10T21:37:39.791Z,2.17
2022-08-10T21:40:40.514Z,2.58
2022-08-10T21:44:07.091Z,3.08
2022-08-10T21:47:02.854Z,2.30
2022-08-10T21:50:07.235Z,2.15
2022-08-10T21:53:04.457Z,2.47
2022-08-10T21:56:20.530Z,2.63
2022-08-10T21:59:13.680Z,2.45
2022-08-10T22:02:08.109Z,2.28
2022-08-10T22:04:55.166Z,2.45
2022-08-10T22:07:44.407Z,2.05
2022-08-10T22:10:38.973Z,2.65
2022-08-10T22:13:26.625Z,2.50
2022-08-10T22:16:30.280Z,2.80
2022-08-10T22:19:23.216Z,2.47
2022-08-10T22:22:27.475Z,2.47
2022-08-10T22:25:24.756Z,2.42
2022-08-10T22:28:12.302Z,2.60
2022-08-10T22:34:30.710Z,2.70
2022-08-10T22:37:29.544Z,2.70
2022-08-10T22:40:23.459Z,2.67
2022-08-10T22:43:13.794Z,2.85
2022-08-10T22:46:07.418Z,2.40
2022-08-10T22:49:01.636Z,2.50
2022-08-10T22:51:46.627Z,2.50
2022-08-10T22:54:36.585Z,2.50
2022-08-10T22:57:22.952Z,2.53
2022-08-10T22:59:53.512Z,2.80
2022-08-10T23:02:33.763Z,2.92
2022-08-10T23:05:09.632Z,2.72
2022-08-10T23:07:52.059Z,2.60
2022-08-10T23:10:23.697Z,2.58
2022-08-10T23:13:35.362Z,2.42
2022-08-10T23:16:42.856Z,2.72
2022-08-10T23:19:13.793Z,2.50
2022-08-10T23:22:03.735Z,2.42
2022-08-10T23:24:41.570Z,2.80
2022-08-10T23:27:38.372Z,2.47
2022-08-10T23:30:23.392Z,2.83
2022-08-10T23:33:01.745Z,2.30
2022-08-10T23:36:27.174Z,2.60
2022-08-10T23:38:36.494Z,2.75
2022-08-10T23:41:13.591Z,3.15
2022-08-10T23:44:03.396Z,2.55
2022-08-10T23:46:44.836Z,2.78
2022-08-10T23:49:39.370Z,2.80
2022-08-10T23:52:20.327Z,2.70
2022-08-10T23:54:55.578Z,2.88
2022-08-10T23:57:36.597Z,2.97
